Norden-Norddeich Airport

EDWS · Niedersachsen, Deutschland

METAR-Geschichte EDWS · Norden-Norddeich Airport

Unten siehst du die METARs der letzten paar Tage. Wähle ein Jahr, um ältere METARs ab dem Jahr 2007 zu durchsuchen.

23. April 2024

Uhrzeit Code Wetter Temp. Sichtweite Wolkendecke Wind METAR/SPECI
08:50
V
5 °C 10 km+ - 250° 250° 6 kt METAR EDWE 230650Z 25006KT CAVOK 05/01 Q1021
08:20
V
5 °C 10 km+ - 240° 240° 5 kt METAR EDWE 230620Z 24005KT CAVOK 05/00 Q1022
07:50
V
5 °C 10 km+ - 230° 230° 4 kt METAR EDWE 230550Z 23004KT CAVOK 05/01 Q1022
07:20
V
2 °C 10 km+ - 250° 250° 3 kt METAR EDWE 230520Z 25003KT 220V310 9999 FEW041 02/01 Q1022
06:50
V
2 °C 10 km+ - Var Var 2 kt METAR EDWE 230450Z VRB02KT CAVOK 02/00 Q1022
06:20
V
1 °C 10 km+ - 360° 360° 0 kt METAR EDWE 230420Z 00000KT CAVOK 01/M00 Q1022
05:50
V
1 °C 10 km+ 6.200 ft 170° 170° 2 kt METAR EDWE 230350Z AUTO 17002KT 9999 // OVC062/// 01/M00 Q1022
05:20
V
1 °C 10 km+ 6.100 ft 360° 360° 0 kt METAR EDWE 230320Z AUTO 00000KT 9999 // OVC061/// 01/M00 Q1022
04:50
V
0 °C 10 km+ 6.600 ft 360° 360° 0 kt METAR EDWE 230250Z AUTO 00000KT 9999 // OVC066/// 00/M01 Q1023
04:20
V
0 °C 10 km+ 6.700 ft 360° 360° 0 kt METAR EDWE 230220Z AUTO 00000KT 9999 // BKN067/// M00/M01 Q1023
03:50
V
0 °C 10 km+ 6.800 ft 360° 360° 0 kt METAR EDWE 230150Z AUTO 00000KT 9999 // BKN068/// 00/M01 Q1023
03:20
V
0 °C 10 km+ 6.700 ft 250° 250° 2 kt METAR EDWE 230120Z AUTO 25002KT 9999 // BKN067/// M00/M01 Q1023
02:50
V
1 °C 10 km+ - 230° 230° 2 kt METAR EDWE 230050Z AUTO 23002KT 9999 // FEW066/// 01/M01 Q1023
02:20
V
1 °C 10 km+ 6.700 ft 250° 250° 2 kt METAR EDWE 230020Z AUTO 25002KT 9999 // BKN067/// 01/M00 Q1023
01:50
V
0 °C 10 km+ - 270° 270° 2 kt METAR EDWE 222350Z AUTO 27002KT 9999 // NCD M00/M01 Q1024
01:20
V
1 °C 10 km+ - 250° 250° 1 kt METAR EDWE 222320Z AUTO 25001KT 9999 // NCD 01/M00 Q1024
00:50
V
0 °C 10 km+ - 290° 290° 1 kt METAR EDWE 222250Z AUTO 29001KT 9999 // NCD 00/M01 Q1024
00:20
V
2 °C 10 km+ - 280° 280° 1 kt METAR EDWE 222220Z AUTO 28001KT 9999 // NCD 02/00 Q1024

22. April 2024

Uhrzeit Code Wetter Temp. Sichtweite Wolkendecke Wind METAR/SPECI
23:50
V
1 °C 10 km+ - 290° 290° 2 kt METAR EDWE 222150Z AUTO 29002KT 9999 // SCT230/// 01/M00 Q1024
23:20
V
2 °C 10 km+ - Var Var 1 kt METAR EDWE 222120Z AUTO VRB01KT 9999 // FEW066/// SCT230/// 02/00 Q1024
22:50
V
3 °C 10 km+ - 350° 350° 1 kt METAR EDWE 222050Z AUTO 35001KT 9999 // NCD 03/00 Q1024
22:20
V
2 °C 10 km+ - 360° 360° 3 kt METAR EDWE 222020Z AUTO 36003KT 9999 // FEW060/// 02/M00 Q1024
21:50
V
3 °C 10 km+ - 060° 060° 4 kt METAR EDWE 221950Z AUTO 06004KT 9999 // FEW052/// 03/M00 Q1024
21:20
V
3 °C 10 km+ 5.000 ft 040° 040° 5 kt METAR EDWE 221920Z AUTO 04005KT 9999 // BKN050/// 03/00 Q1024
20:50
V
4 °C 10 km+ - 010° 010° 6 kt METAR EDWE 221850Z AUTO 01006KT 9999 // SCT069/// 04/M00 Q1024
20:20
V
5 °C 10 km+ 7.000 ft 040° 040° 8 kt METAR EDWE 221820Z AUTO 04008KT 9999 // OVC070/// 05/00 Q1024
19:50
V
6 °C 10 km+ 5.800 ft 040° 040° 13 kt METAR EDWE 221750Z AUTO 04013KT 9999 // FEW002/// BKN058/// BKN070/// 06/M00 Q1024
19:20
V
7 °C 10 km+ 6.800 ft 020° 020° 10 kt METAR EDWE 221720Z AUTO 02010KT 9999 // SCT057/// OVC068/// 07/M01 Q1024
14:50
V
8 °C 10 km+ - 020° 020° 13 kt METAR EDWE 221250Z AUTO 02013KT 9999 // FEW053/// 08/M03 Q1024
14:20
V
9 °C 10 km+ - 020° 020° 11 kt METAR EDWE 221220Z AUTO 02011KT 340V050 9999 // NCD 09/M03 Q1025
13:50
V
8 °C 10 km+ - 010° 010° 12 kt METAR EDWE 221150Z AUTO 01012KT 330V040 9999 // NCD 08/M04 Q1025
13:20
V
8 °C 10 km+ - 010° 010° 14 kt METAR EDWE 221120Z AUTO 01014KT 9999 // SCT052/// 08/M03 Q1025
12:50
V
8 °C 10 km+ 6.100 ft 020° 020° 12 kt METAR EDWE 221050Z AUTO 02012KT 350V050 9999 // SCT048/// BKN061/// 08/M00 Q1025
12:20
V
8 °C 10 km+ - 020° 020° 13 kt METAR EDWE 221020Z AUTO 02013KT 9999 // FEW058/// 08/M03 Q1025
11:50
V
8 °C 10 km+ 15.000 ft 020° 020° 13 kt METAR EDWE 220950Z AUTO 02013KT 9999 // FEW066/// BKN150/// 08/M04 Q1025
11:20
V
7 °C 10 km+ 14.000 ft 040° 040° 9 kt METAR EDWE 220920Z AUTO 04009KT 9999 // SCT044/// BKN140/// 07/M01 Q1025
10:50
V
6 °C 10 km+ 4.900 ft 050° 050° 10 kt METAR EDWE 220850Z AUTO 05010KT 9999 // FEW032/// BKN049/// 06/M01 Q1026
10:20
V
7 °C 10 km+ - 060° 060° 9 kt METAR EDWE 220820Z AUTO 06009KT 9999 // SCT030/// 07/02 Q1026
09:50
V
7 °C 10 km+ - 040° 040° 10 kt METAR EDWE 220750Z AUTO 04010KT 9999 // FEW140/// 07/02 Q1026
09:20
V
6 °C 10 km+ - 040° 040° 9 kt METAR EDWE 220720Z AUTO 04009KT 9999 // SCT130/// 06/02 Q1026
08:50
V
6 °C 10 km+ - 030° 030° 8 kt METAR EDWE 220650Z AUTO 03008KT 9999 // FEW140/// 06/02 Q1025
08:20
V
5 °C 10 km+ - 020° 020° 7 kt METAR EDWE 220620Z AUTO 02007KT 9999 // FEW140/// 05/01 Q1025
07:50
V
4 °C 10 km+ - 010° 010° 7 kt METAR EDWE 220550Z AUTO 01007KT 9999 // FEW068/// 04/00 Q1025
07:20
V
4 °C 10 km+ 14.000 ft 360° 360° 6 kt METAR EDWE 220520Z AUTO 36006KT 9999 // SCT068/// BKN140/// 04/M00 Q1025
06:50
V
2 °C 10 km+ 15.000 ft 320° 320° 5 kt METAR EDWE 220450Z AUTO 32005KT 9999 // SCT070/// BKN150/// 02/02 Q1025
06:20
V
1 °C 10 km+ 20.000 ft 320° 320° 4 kt METAR EDWE 220420Z AUTO 32004KT 9999 // SCT140/// BKN200/// 01/00 Q1025
05:50
V
1 °C 10 km+ 21.000 ft 300° 300° 2 kt METAR EDWE 220350Z AUTO 30002KT 9999 // BKN210/// 01/01 Q1026
05:20
V
2 °C 10 km+ 17.000 ft 340° 340° 2 kt METAR EDWE 220320Z AUTO 34002KT 9999 // BKN170/// 02/01 Q1026
04:50
V
2 °C 10 km+ 21.000 ft Var Var 2 kt METAR EDWE 220250Z AUTO VRB02KT 9999 // SCT180/// BKN210/// 02/02 Q1026
04:20
V
2 °C 10 km+ 19.000 ft 010° 010° 2 kt METAR EDWE 220220Z AUTO 01002KT 9999 // FEW058/// BKN190/// 02/01 Q1026
03:50
V
3 °C 10 km+ 7.300 ft 070° 070° 3 kt METAR EDWE 220150Z AUTO 07003KT 9999 // BKN073/// BKN087/// 03/02 Q1026
03:20
V
4 °C 10 km+ 7.100 ft Var Var 2 kt METAR EDWE 220120Z AUTO VRB02KT 9999 // OVC071/// 04/03 Q1026
02:50
V
4 °C 10 km+ 6.700 ft Var Var 2 kt METAR EDWE 220050Z AUTO VRB02KT 9999 // FEW052/// OVC067/// 04/03 Q1026
02:20
V
4 °C 10 km+ 8.300 ft 360° 360° 0 kt METAR EDWE 220020Z AUTO 00000KT 9999 // FEW048/// OVC083/// 04/02 Q1027
01:50
V
4 °C 10 km+ 8.300 ft Var Var 2 kt METAR EDWE 212350Z AUTO VRB02KT 9999 // FEW072/// OVC083/// 04/02 Q1027
01:20
M
4 °C 10 km+ 3.000 ft 260° 260° 7 kt METAR EDWE 212320Z AUTO 26007KT 230V340 9999 // FEW008/// BKN030/// OVC039/// 04/02 Q1027
00:50
V
5 °C 10 km+ 6.300 ft 030° 030° 8 kt METAR EDWE 212250Z AUTO 03008KT 9999 // SCT038/// BKN063/// OVC086/// 05/02 Q1027
00:20
V
5 °C 10 km+ 8.400 ft 040° 040° 7 kt METAR EDWE 212220Z AUTO 04007KT 9999 // FEW034/// SCT042/// OVC084/// 05/02 Q1027

21. April 2024

Uhrzeit Code Wetter Temp. Sichtweite Wolkendecke Wind METAR/SPECI
23:50
V
4 °C 10 km+ 8.700 ft 320° 320° 3 kt METAR EDWE 212150Z AUTO 32003KT 9999 // OVC087/// 04/02 Q1027
23:20
V
5 °C 10 km+ 9.300 ft 330° 330° 3 kt METAR EDWE 212120Z AUTO 33003KT 9999 // SCT080/// OVC093/// 05/02 Q1027
22:50
V
5 °C 10 km+ 6.900 ft 340° 340° 4 kt METAR EDWE 212050Z AUTO 34004KT 9999 // BKN069/// OVC078/// 05/02 Q1027
22:20
V
5 °C 10 km+ 6.500 ft Var Var 2 kt METAR EDWE 212020Z AUTO VRB02KT 9999 // OVC065/// 05/02 Q1027
21:50
V
5 °C 10 km+ 6.200 ft 010° 010° 9 kt METAR EDWE 211950Z AUTO 01009KT 9999 // BKN062/// OVC072/// 05/01 Q1027
21:20
V
6 °C 10 km+ 6.800 ft 350° 350° 11 kt METAR EDWE 211920Z AUTO 35011KT 9999 // FEW054/// BKN068/// OVC090/// 06/00 Q1027
20:50
V
5 °C 10 km+ 6.900 ft 360° 360° 8 kt METAR EDWE 211850Z AUTO 36008KT 9999 // SCT035/// BKN069/// BKN090/// 05/02 Q1027
20:20
V
6 °C 10 km+ - Var Var 1 kt METAR EDWE 211820Z VRB01KT 9999 -RA FEW017 SCT048 06/M00 Q1027
19:50
V
6 °C 10 km+ - 030° 030° 14 - 29 kt METAR EDWE 211750Z 03014G29KT 9999 -RA FEW031 06/01 Q1027
19:20
V
7 °C 10 km+ - 010° 010° 8 kt METAR EDWE 211720Z 01008KT 9999 FEW034 07/02 Q1027
18:50
V
8 °C 10 km+ - 010° 010° 9 kt METAR EDWE 211650Z 01009KT CAVOK 08/02 Q1026
18:20
V
8 °C 10 km+ - 020° 020° 12 kt METAR EDWE 211620Z 02012KT CAVOK 08/01 Q1026
17:50
V
8 °C 10 km+ - 010° 010° 11 kt METAR EDWE 211550Z 01011KT CAVOK 08/02 Q1026
17:20
V
8 °C 10 km+ - 020° 020° 11 kt METAR EDWE 211520Z 02011KT CAVOK 08/02 Q1026
16:50
V
7 °C 10 km+ - 350° 350° 10 kt METAR EDWE 211450Z 35010KT CAVOK 07/01 Q1026
16:20
V
7 °C 10 km+ 4.100 ft 030° 030° 21 kt METAR EDWE 211420Z 03021KT 9999 BKN041 07/03 Q1027
15:50
V
9 °C 10 km+ - 020° 020° 12 kt METAR EDWE 211350Z 02012KT 340V040 9999 FEW041 09/01 Q1026
15:20
V
9 °C 10 km+ - 020° 020° 11 kt METAR EDWE 211320Z 02011KT 9999 SCT042 09/01 Q1026
14:50
V
10 °C 10 km+ - 040° 040° 11 kt METAR EDWE 211250Z 04011KT 9999 SCT045 10/01 Q1026
14:20
V
10 °C 10 km+ - 040° 040° 11 kt METAR EDWE 211220Z 04011KT CAVOK 10/01 Q1026
13:50
V
9 °C 10 km+ - 040° 040° 12 kt METAR EDWE 211150Z 04012KT CAVOK 09/M00 Q1026
13:20
V
10 °C 10 km+ - 040° 040° 12 kt METAR EDWE 211120Z 04012KT 9999 SCT042 10/M01 Q1026
12:50
V
10 °C 10 km+ - 050° 050° 12 kt METAR EDWE 211050Z 05012KT 030V090 9999 SCT042 10/01 Q1026
07:50
V
2 °C 10 km+ - 020° 020° 4 kt METAR EDWE 210550Z AUTO 02004KT 9999 // NCD 02/01 Q1023
Eine Änderung melden